Airfield :
LOGIN :

Register | Disclaimer

   EN    FR    IT 

 










Legend :    VFR   Marginal VFR   IFR   Intensive IFR   Very Intensive IFR
Visi :
Ceiling :
>= 8 km
>= 3000ft
5 to 8 km
1000 to 3000 ft
1500m to 5 km
500 to 1000 ft
800 to 1500m
200 to 500 ft
< 800m
< 200 ft
Symbols :   Thunderstorms  Fog  Heavy snow  Heavy precipitations  Wind > 20 kt
SIGMETs :     Misc.  Thunderstorms  Icing  Turbulence  Mountain Waves  Volcanic Ashes







- Airport Elevation : 157 ft
- IATA code : LIL
- Download approach charts


LFQQ - Lille Lesquin

CURRENT METAR :
  • 220830Z AUTO 21007KT 9999 FEW019/// SCT039/// BKN072/// ///TCU 13/11 Q1021 TEMPO 3000 SHRA

EXPIRED METARs :
  • 220800Z AUTO 21007KT 9999 BKN029/// BKN036/// BKN045/// ///TCU 13/10 Q1020 TEMPO 3000 SHRA
  • 220730Z AUTO 20003KT 170V230 9999 FEW034 SCT130 12/10 Q1021 TEMPO 3000 SHRA BKN020TCU
  • 220700Z AUTO 20007KT 9999 ///TCU 12/10 Q1021 TEMPO 3000 SHRA
  • 220630Z AUTO 21010KT 160V230 9999 -RA FEW030/// SCT037/// BKN066/// ///TCU 12/10 Q1020 TEMPO 3000 SHRA
  • 220600Z AUTO 20008KT 9999 ///TCU 11/09 Q1020 TEMPO 3000 SHRA

TAF TAF LFQQ
Valid from the 22 at 06:00 until the 23 at 12:00 UTC


220500Z 2206/2312 20007KT 9999 SCT040
TEMPO 2206/2214 3000 SHRA BKN020TCU
BECMG 2211/2214 27010KT
TEMPO 2214/2301 4000 RA
BECMG 2218/2220 12008KT
PROB40
TEMPO 2220/2301 1500 RADZ BKN004 OVC015
BECMG 2301/2303 06010KT
TEMPO 2301/2310 3000 DZRA OVC004
TEMPO 2310/2312 1500 +RA OVC004
BECMG 2310/2312 36015G25KT
ATIS : +33 3 20 16 19 54
No reported NOTAMs for that airfield.
1 SIGMET reported for the Paris FIR (LFFF) :
 
Severe icing
LFFF SIGMET 1 VALID 220630/221000 LFPW
LFFF PARIS FIR/UIR SEV ICE FCST WI N4845 W00015 - N5000 W00015 - N5030 E00030 - N4930 E00115 - N4845 W00015 FL080/200 MOV E 35KT NC=



MET'MAP, your aeronautical weather chart ! - Copyright ORBIFLY December 2007 - Disclaimer

ORBIFLY MET'MAP TEAM :

Programming & Development : Alexandra Zaïnal
Concept & Development : Baudouin d'Aumeries
Co-Development & Prog : Marc-Olivier Méhu
Technical & hardware support : Manuel Goepfert

Contact : metmap@orbifly.com




SOURCES & CREDITS :

   NOAA